Tiempo atmosférico en la estación meteorológica de Vejer De La Frontera, Cádiz (160 m.)



Fecha
DESCASC
Temp. máxima en grados centígrados (hora)
DESCASC
Temp. mínima en grados centígrados (hora)
DESCASC
Temp. media en grados centígrados
DESCASC
Racha de viento máxima en m/sg (hora)
DESCASC
Velocidad máxima media en intervalos de 10 minutos(hora)
DESCASC
Precipitaciones diarias en mm
DESCASC
Precipitaciones de 00:00 a 06:00 en mm
DESCASC
Precipitaciones de 06:00 a 12:00 en mm
DESCASC
Precipitaciones de 12:00 a 18:00 en mm
DESCASC
Precipitaciones de 18:00 a 24:00 en mm
DESCASC
22-08-2019 30.1 (16:30) 23.1 (08:00) 26.6 16.39 (18:50) 7.5 (17:50) 0 0 0 0 0
21-08-2019 32 (15:40) 21.2 (03:10) 26.6 14.44 (16:10) 6.39 (16:10) 0 0 0 0 0
20-08-2019 27.5 (16:30) 19 (08:00) 23.3 8.06 (14:50) 4.72 (15:00) 0 0 0 0 0
19-08-2019 28.9 (18:30) 19.4 (02:10) 24.1 9.72 (16:10) 6.11 (21:00) 0 0 0 0 0
18-08-2019 27.5 (15:40) 19.6 (00:00) 23.6 8.89 (16:00) 5.56 (16:00) 0 0 0 0 0
17-08-2019 37.5 (16:20) 22.6 (00:00) 30.1 8.06 (14:50) 3.61 (14:50) 0 0 0 0 0
16-08-2019 36.3 (15:00) 23.8 (00:00) 30 7.22 (13:20) 3.33 (15:10) 0 0 0 0 0
15-08-2019 36.1 (17:10) 21.2 (00:00) 28.6 9.17 (14:20) 4.44 (14:20) 0 0 0 0 0
14-08-2019 31.8 (16:10) 23 (00:00) 27.4 11.67 (15:40) 5.28 (15:50) 0 0 0 0 0
13-08-2019 31.8 (17:40) 20.6 (00:00) 26.2 7.5 (10:30) 3.61 (15:00) 0 0 0 0 0
12-08-2019 29.7 (14:00) 19.2 (00:00) 24.5 10.83 (18:00) 5.83 (14:40) 0 0 0 0 0
11-08-2019 29 (17:10) 19.2 (00:00) 24.1 10.56 (18:30) 5.28 (18:10) 0 0 0 0 0
10-08-2019 29.5 (14:10) 20 (00:00) 24.8 13.06 (14:10) 6.11 (21:30) 0 0 0 0 0
09-08-2019 27.1 (16:00) 20 (00:00) 23.6 18.89 (17:30) 6.11 (18:40) 0 0 0 0 0
08-08-2019 31.2 (14:10) 19.3 (00:00) 25.3 9.44 (19:30) 5.83 (15:40) 0 0 0 0 0
07-08-2019 30.6 (18:10) 19 (00:00) 24.8 9.72 (17:00) 6.11 (20:20) 0 0 0 0 0
06-08-2019 31.8 (14:50) 17.6 (00:00) 24.7 10.28 (17:50) 6.39 (17:50) 0 0 0 0 0
05-08-2019 30 (13:50) 19.4 (00:00) 24.7 9.44 (19:00) 5.83 (19:00) 0 0 0 0 0
04-08-2019 28.5 (17:30) 19.1 (00:00) 23.8 8.89 (15:20) 5 (19:40) 0 0 0 0 0
03-08-2019 29.8 (18:50) 18.8 (00:00) 24.3 6.94 (15:50) 3.89 (16:10) 0 0 0 0 0
02-08-2019 29.5 (18:00) 19.7 (00:00) 24.6 13.89 (18:50) 5.56 (15:30) 0 0 0 0 0
01-08-2019 33.2 (16:20) 21.9 (00:00) 27.6 9.72 (17:10) 5.56 (22:00) 0 0 0 0 0
31-07-2019 31 (16:30) 21.8 (00:00) 26.4 13.33 (15:40) 6.11 (10:50) 0 0 0 0 0
30-07-2019 33.3 (17:20) 19.8 (00:00) 26.5 9.17 (14:40) 5.28 (15:50) 0 0 0 0 0
29-07-2019 27.9 (17:30) 18.4 (00:00) 23.1 10 (19:10) 5.56 (18:40) 0 0 0 0 0
28-07-2019 25.5 (15:40) 19.4 (00:00) 22.4 8.89 (16:10) 5.28 (18:40) 0 0 0 0 0
27-07-2019 24 (13:50) 18.2 (00:00) 21.1 11.67 (16:10) 6.67 (16:10) 0 0 0 0 0
26-07-2019 26.5 (13:30) 19.7 (00:00) 23.1 11.94 (15:40) 6.39 (15:40) 0 0 0 0 0
25-07-2019 29.6 (15:40) 20.3 (00:00) 24.9 9.44 (19:50) 5.83 (19:50) 0 0 0 0 0
24-07-2019 35.4 (17:40) 21.3 (00:00) 28.4 6.67 (16:10) 3.33 (19:30) 0 0 0 0 0

Gráficas

Temp. máximas Temp. mínimas Temp. medias Precipitaciones Rachas de viento máximas Velocidades máximas media en intervalos de 10 minutos

Datos horarios

Fecha y hora oficial Temperatura (ºC) Velocidad del viento (km/h) Dirección del viento Racha (km/h) Dirección de racha Precipitación (mm) Presión (hPa) Tendencia (hPa) Humedad (%)
2019-08-22 23:00:00 23.4 17 Este 42 Sudeste 0 993.4 1.2 70
2019-08-22 22:00:00 23.7 17 Este 39 Este 0 993.2 0.9 66
2019-08-22 21:00:00 25 16 Este 49 Sudeste 0 992.6 0.2 54
2019-08-22 20:00:00 26.7 22 Este 50 Este 0 992.2 -0.4 51
2019-08-22 19:00:00 28.2 22 Este 59 Este 0 992.3 -1 45
2019-08-22 18:00:00 28.9 24 Este 57 Este 0 992.4 -0.9 45
2019-08-22 17:00:00 29.5 25 Este 54 Este 0 992.6 -1.4 44
2019-08-22 16:00:00 29.4 22 Este 50 Este 0 993.3 -0.9 49
2019-08-22 15:00:00 28.6 21 Este 50 Este 0 993.3 -1 51
2019-08-22 14:00:00 28.6 22 Este 47 Este 0 994 0.1 52
2019-08-22 13:00:00 28.2 22 Este 51 Este 0 994.2 0.4 53
2019-08-22 12:00:00 27.5 21 Este 51 Este 0 994.3 0.5 55
2019-08-22 11:00:00 26.4 23 Este 54 Este 0 993.9 0.3 60
2019-08-22 10:00:00 25 21 Este 51 Este 0 993.8 0.4 66
2019-08-22 09:00:00 23.4 17 Este 43 Este 0 993.8 0.2 73
2019-08-22 08:00:00 23.1 17 Este 46 Este 0 993.6 -0.3 77
2019-08-22 07:00:00 23.2 16 Este 37 Sudeste 0 993.4 -0.6 79
2019-08-22 06:00:00 23.3 16 Este 41 Este 0 993.6 -0.8 78
2019-08-22 05:00:00 23.4 18 Este 40 Este 0 993.9 -1 77
2019-08-22 04:00:00 23.4 15 Este 44 Este 0 994 -1 77
2019-08-22 03:00:00 23.4 18 Este 41 Este 0 994.4 -0.3 77
2019-08-22 02:00:00 23.7 19 Este 48 Este 0 994.9 0.4 76
2019-08-22 01:00:00 23.6 19 Este 39 Este 0 995 1.3 76
2019-08-22 00:00:00 23.8 17 Este 39 Este 0 994.7 1.2 76
2019-08-21 23:00:00 24 16 Este 32 Este 0 994.5 1.5 76
2019-08-21 22:00:00 24.8 11 Este 31 Este 0 993.7 0.9 71
2019-08-21 21:00:00 25.9 12 Este 36 Este 0 993.5 0.7 63
2019-08-21 20:00:00 28 15 Este 38 Este 0 993 0 54
2019-08-21 19:00:00 29.9 17 Este 39 Este 0 992.8 -0.3 50
2019-08-21 18:00:00 30.5 19 Este 45 Este 0 992.8 -1.1 46
2019-08-21 17:00:00 31.7 19 Este 52 Este 0 993 -0.9 46
2019-08-21 16:00:00 31.3 19 Este 44 Sudeste 0 993.1 -1.3 47
2019-08-21 15:00:00 31.2 19 Este 43 Este 0 993.9 -1 47
2019-08-21 14:00:00 31.3 18 Este 46 Este 0 993.9 -0.5 46
2019-08-21 13:00:00 30.8 19 Este 44 Este 0 994.4 0.1 47
2019-08-21 12:00:00 29.1 14 Este 41 Este 0 994.9 0.8 53
2019-08-21 11:00:00 28.3 17 Este 42 Este 0 994.4 0.4 56
2019-08-21 10:00:00 26.4 16 Este 39 Este 0 994.3 0.7 62
2019-08-21 09:00:00 24.1 14 Este 28 Este 0 994.1 0.7 74
2019-08-21 08:00:00 23.3 10 Este 25 Este 0 994 0.8 77
2019-08-21 07:00:00 23.3 12 Este 27 Sudeste 0 993.6 0 78
2019-08-21 06:00:00 23.3 10 Este 26 Este 0 993.4 -0.5 77
2019-08-21 05:00:00 23.3 13 Este 30 Este 0 993.2 -0.8 76
2019-08-21 04:00:00 22 13 Este 29 Este 0 993.6 -0.8 78
2019-08-21 03:00:00 21.3 7 Este 20 Este 0 993.9 -0.4 69
2019-08-21 02:00:00 23.2 11 Este 23 Este 0 994 -0.3 63
2019-08-21 01:00:00 23.2 5 Nordeste 12 Este 0 994.4 0.9 45
2019-08-21 00:00:00 23.2 2 Norte 9 Norte 0 994.3 1.3 39
2019-08-20 23:00:00 21.4 0 Calma 17 Noroeste 0 994.3 1.4 56
2019-08-20 22:00:00 21.5 9 Oeste 18 Oeste 0 993.5 0.5 60
2019-08-20 21:00:00 23.5 7 Oeste 19 Oeste 0 993 -0.5 54
2019-08-20 20:00:00 25.8 11 Oeste 21 Oeste 0 992.9 -0.8 45
2019-08-20 19:00:00 27.1 12 Oeste 24 Oeste 0 993 -1.2 40
2019-08-20 18:00:00 27.1 15 Oeste 25 Oeste 0 993.5 -1.1 37
2019-08-20 17:00:00 27.2 14 Oeste 28 Oeste 0 993.7 -1.5 33
2019-08-20 16:00:00 26.9 15 Oeste 29 Oeste 0 994.2 -0.9 37
2019-08-20 15:00:00 26.1 17 Oeste 29 Oeste 0 994.6 -0.6 45
2019-08-20 14:00:00 26.1 14 Oeste 25 Sudoeste 0 995.2 0.6 45
2019-08-20 13:00:00 26.3 10 Oeste 22 Oeste 0 995.1 0.8 45
2019-08-20 12:00:00 25.4 7 Sudoeste 19 Sudoeste 0 995.2 1.4 52
2019-08-20 11:00:00 24.5 5 Sudoeste 13 Sudoeste 0 994.6 1.1 60
2019-08-20 10:00:00 22.5 4 Sudeste 8 Sudeste 0 994.3 1.7 76
2019-08-20 09:00:00 19.4 3 Sur 8 Sur 0 993.8 0.9 89
2019-08-20 08:00:00 19 2 Sur 11 Sur 0 993.5 0.4 91
2019-08-20 07:00:00 19.4 5 Sudeste 11 Sur 0 992.6 -0.7 91
2019-08-20 06:00:00 19.2 5 Sur 12 Sur 0 992.9 -0.7 89
2019-08-20 05:00:00 19.2 6 Sudoeste 14 Sur 0 993.1 -0.9 88
2019-08-20 04:00:00 19.3 6 Sur 12 Sur 0 993.3 -0.7 86
2019-08-20 03:00:00 19.4 6 Sudoeste 15 Sudoeste 0 993.6 -0.4 84
2019-08-20 02:00:00 19.6 8 Sudoeste 14 Sudoeste 0 994 0.3 79
2019-08-20 01:00:00 20.1 7 Sudoeste 14 Oeste 0 994 0.8 74
2019-08-20 00:00:00 20.7 8 Oeste 16 Oeste 0 994 1.2 74
2019-08-19 23:00:00 20.9 10 Oeste 25 Oeste 0 993.7 1 76
2019-08-19 22:00:00 21.2 18 Oeste 32 Oeste 0 993.2 0.5 82
2019-08-19 21:00:00 23.1 22 Oeste 31 Oeste 0 992.8 -0.2 75
2019-08-19 20:00:00 25.4 18 Oeste 30 Oeste 0 992.7 -0.6 58
2019-08-19 19:00:00 28.4 17 Oeste 29 Oeste 0 992.7 -1.1 39
2019-08-19 18:00:00 28.5 15 Oeste 30 Oeste 0 993 -0.9 41
2019-08-19 17:00:00 27.9 16 Oeste 35 Oeste 0 993.3 -0.9 55
2019-08-19 16:00:00 27.1 15 Oeste 33 Oeste 0 993.8 -0.6 60
2019-08-19 15:00:00 26 21 Oeste 34 Oeste 0 993.9 -0.8 63
2019-08-19 14:00:00 25.7 12 Sudoeste 24 Sudoeste 0 994.2 -0.1 64
2019-08-19 13:00:00 24.3 12 Sudoeste 23 Sur 0 994.4 0.4 70
2019-08-19 12:00:00 23.3 10 Sur 21 Sur 0 994.7 1 77
2019-08-19 11:00:00 21.9 9 Sur 18 Sur 0 994.3 1.2 83
2019-08-19 10:00:00 21 8 Sudoeste 17 Sudoeste 0 994 1.1 89
2019-08-19 09:00:00 20.7 5 Sudoeste 20 Sudoeste 0 993.7 1 91
2019-08-19 08:00:00 20.2 11 Sudoeste 22 Sudoeste 0 993.1 0.3 93
2019-08-19 07:00:00 20.2 10 Sudoeste 21 Sudoeste 0 992.9 -0.5 93
2019-08-19 06:00:00 20.2 10 Sudoeste 18 Sur 0 992.7 -0.9 93
2019-08-19 05:00:00 20.2 7 Sudoeste 19 Sudoeste 0 992.8 -0.9 93
2019-08-19 04:00:00 20.1 9 Sudoeste 16 Sudoeste 0 993.4 -0.2 92
2019-08-19 03:00:00 19.7 8 Sudoeste 12 Sudoeste 0 993.6 -0.1 90
2019-08-19 02:00:00 19.6 5 Sudoeste 8 Sudoeste 0 993.7 0.3 87
2019-08-19 01:00:00 19.7 4 Sudoeste 8 Sudoeste 0 993.6 0.8 85
2019-08-19 00:00:00 21 6 Oeste 17 Oeste 0 993.7 1.3 82
2019-08-18 23:00:00 21.2 9 Oeste 18 Oeste 0 993.4 1.1 79
2019-08-18 22:00:00 21.5 12 Oeste 24 Oeste 0 992.8 0.1 78
2019-08-18 21:00:00 23.3 13 Oeste 25 Oeste 0 992.4 -0.6 68
2019-08-18 20:00:00 25.5 14 Oeste 25 Oeste 0 992.3 -0.7 56
2019-08-18 19:00:00 27 14 Oeste 30 Oeste 0 992.7 -0.7 52
2019-08-18 18:00:00 26.5 19 Oeste 31 Oeste 0 993 -0.8 57
2019-08-18 17:00:00 27.2 19 Oeste 30 Oeste 0 993 -1.4 55
2019-08-18 16:00:00 27.2 20 Oeste 32 Sudoeste 0 993.4 -0.9 56
2019-08-18 15:00:00 26.6 17 Sudoeste 31 Sudoeste 0 993.8 -0.4 58
2019-08-18 14:00:00 25.3 14 Sudoeste 28 Sudoeste 0 994.4 0.8 64
2019-08-18 13:00:00 24.8 14 Sudoeste 24 Sudoeste 0 994.3 1.3 65
2019-08-18 12:00:00 23.4 14 Sudoeste 25 Sudoeste 0 994.2 2 72
2019-08-18 11:00:00 21.1 13 Sudoeste 26 Sudoeste 0 993.6 1.7 83
2019-08-18 10:00:00 19.9 11 Sur 24 Sur 0 993 2 91
2019-08-18 09:00:00 19.7 9 Sur 21 Sur 0 992.2 1.3 91
2019-08-18 08:00:00 19.8 8 Sudoeste 21 Sur 0 991.9 0.9 89
2019-08-18 07:00:00 19.9 11 Sur 25 Sur 0 991 -0.3 85
2019-08-18 06:00:00 21.1 10 Sur 21 Sur 0 990.9 -0.4 77
2019-08-18 05:00:00 23.3 5 Sudoeste 10 Sudoeste 0 991 -0.7 62
2019-08-18 04:00:00 23.3 4 Sudoeste 9 Sudoeste 0 991.3 -0.3 52
2019-08-18 03:00:00 24.4 0 Calma 5 Este 0 991.3 -0.3 40
2019-08-18 02:00:00 25.4 3 Nordeste 10 Nordeste 0 991.7 0.1 37
2019-08-18 01:00:00 25.6 6 Nordeste 12 Nordeste 0 991.6 0.7 37
2019-08-18 00:00:00 26.7 2 Norte 13 Norte 0 991.6 0.9 37
2019-08-17 23:00:00 28 3 Norte 9 Norte 0 991.6 1 34
2019-08-17 22:00:00 28.8 2 Nordeste 10 Noroeste 0 990.9 0 28
2019-08-17 21:00:00 31 3 Norte 12 Sur 0 990.7 -0.4 29
2019-08-17 20:00:00 33.2 0 Calma 15 Este 0 990.6 -0.8 28
2019-08-17 19:00:00 35.4 6 Este 22 Este 0 990.9 -0.9 20
2019-08-17 18:00:00 36.6 9 Este 27 Este 0 991.1 -1.2 19
2019-08-17 17:00:00 36.9 13 Este 27 Este 0 991.4 -1.5 19
2019-08-17 16:00:00 36.8 11 Este 28 Este 0 991.8 -1.5 20
2019-08-17 15:00:00 36 12 Este 29 Este 0 992.3 -1.3 23
2019-08-17 14:00:00 35.2 12 Este 26 Nordeste 0 992.9 -0.5 24
2019-08-17 13:00:00 33.8 12 Este 27 Este 0 993.3 0 27
2019-08-17 12:00:00 31.4 6 Este 25 Sudeste 0 993.6 0.5 36
2019-08-17 11:00:00 28.4 8 Este 22 Este 0 993.4 0.5 45
2019-08-17 10:00:00 25.3 7 Este 19 Este 0 993.3 0.6 56
2019-08-17 09:00:00 23.1 7 Nordeste 16 Nordeste 0 993.1 0.6 66
2019-08-17 08:00:00 22.8 7 Nordeste 17 Nordeste 0 992.9 0.1 63
2019-08-17 07:00:00 23.3 8 Nordeste 19 Este 0 992.7 -0.2 55
2019-08-17 06:00:00 23.3 7 Nordeste 19 Nordeste 0 992.5 -0.8 54
2019-08-17 05:00:00 23.4 6 Nordeste 14 Este 0 992.8 -1.1 57
2019-08-17 04:00:00 24.2 6 Nordeste 14 Nordeste 0 992.9 -1.3 45
2019-08-17 03:00:00 24.7 5 Este 14 Este 0 993.3 -0.9 40
2019-08-17 02:00:00 25.2 5 Este 15 Este 0 993.9 -0.2 38
2019-08-17 01:00:00 25.8 6 Este 17 Este 0 994.2 0.5 36
2019-08-17 00:00:00 25.9 5 Nordeste 11 Nordeste 0 994.2 0.8 38
2019-08-16 23:00:00 26.8 5 Este 19 Este 0 994.1 1 35
2019-08-16 22:00:00 27.3 6 Este 15 Este 0 993.7 0.3 35
2019-08-16 21:00:00 29.3 7 Este 19 Nordeste 0 993.4 0 29
2019-08-16 20:00:00 31.7 6 Este 21 Este 0 993.1 -0.9 27
2019-08-16 19:00:00 33.5 7 Este 23 Este 0 993.4 -0.9 25
2019-08-16 18:00:00 35.1 9 Este 24 Este 0 993.4 -1.3 22
2019-08-16 17:00:00 36.1 10 Este 22 Este 0 994 -1.1 22
2019-08-16 16:00:00 35.2 11 Este 25 Este 0 994.3 -1.3 22
2019-08-16 15:00:00 35.7 8 Este 26 Este 0 994.7 -0.9 23
2019-08-16 14:00:00 33.9 9 Este 26 Este 0 995.1 -0.1 26
2019-08-16 13:00:00 33.2 10 Este 22 Este 0 995.6 0.6 29
2019-08-16 12:00:00 32.8 4 Este 19 Este 0 995.6 1 31
2019-08-16 11:00:00 30.8 4 Este 13 Sudeste 0 995.2 1.1 33
2019-08-16 10:00:00 27.8 5 Este 14 Este 0 995 1.2 38
2019-08-16 09:00:00 25.1 5 Este 14 Este 0 994.6 0.8 45
2019-08-16 08:00:00 24 8 Este 14 Este 0 994.1 0 45
2019-08-16 07:00:00 24 4 Este 14 Este 0 993.8 -0.4 45
2019-08-16 06:00:00 24.2 6 Este 17 Este 0 993.8 -0.4 44
2019-08-16 05:00:00 24.5 6 Este 15 Este 0 994.1 -0.8 44
2019-08-16 04:00:00 24.7 4 Nordeste 15 Este 0 994.2 -0.9 47
2019-08-16 03:00:00 24.1 7 Este 20 Este 0 994.2 -0.8 48
2019-08-16 02:00:00 25 8 Este 21 Este 0 994.9 -0.2 44
2019-08-16 01:00:00 24.8 5 Este 15 Este 0 995.1 0.7 44
2019-08-16 00:00:00 25.8 5 Este 21 Este 0 995 0.6 42
2019-08-15 23:00:00 26 5 Este 19 Sudeste 0 995.1 0.9 41
2019-08-15 22:00:00 27 5 Este 15 Este 0 994.4 0.3 38
2019-08-15 21:00:00 29 4 Este 10 Oeste 0 994.4 0.5 33
2019-08-15 20:00:00 30.9 3 Oeste 21 Oeste 0 994.2 0.2 42
2019-08-15 19:00:00 31.7 9 Oeste 24 Este 0 994.1 -0.3 40
2019-08-15 18:00:00 34.8 9 Este 27 Este 0 993.9 -1 23
2019-08-15 17:00:00 35.9 10 Este 28 Este 0 994 -1.2 23
2019-08-15 16:00:00 35.3 11 Este 31 Este 0 994.4 -1.2 24
2019-08-15 15:00:00 34.2 13 Este 33 Este 0 994.9 -0.8 26
2019-08-15 14:00:00 33.3 13 Este 30 Este 0 995.2 -0.3 29
2019-08-15 13:00:00 32.1 12 Este 26 Sudeste 0 995.6 0.3 32
2019-08-15 12:00:00 30.3 12 Este 28 Este 0 995.7 0.7 44
2019-08-15 11:00:00 28.2 10 Este 24 Este 0 995.5 1.1 51
2019-08-15 10:00:00 25.3 8 Este 22 Este 0 995.3 1.3 63
2019-08-15 09:00:00 23.3 7 Este 17 Este 0 995 0.8 71
2019-08-15 08:00:00 21.4 6 Este 16 Este 0 994.4 0.1 79
2019-08-15 07:00:00 21.3 6 Este 17 Este 0 994 -0.5 80
2019-08-15 06:00:00 22.1 7 Este 26 Nordeste 0 994.2 -0.7 76
2019-08-15 05:00:00 23.1 10 Este 29 Este 0 994.3 -1 74
2019-08-15 04:00:00 22.8 10 Este 23 Este 0 994.5 -1.2 74
2019-08-15 03:00:00 22.5 6 Este 16 Este 0 994.9 -0.8 76
2019-08-15 02:00:00 23.3 5 Este 14 Este 0 995.3 -0.1 72
2019-08-15 01:00:00 23.5 5 Este 12 Nordeste 0 995.7 0.6 70
2019-08-15 00:00:00 24 6 Este 16 Este 0 995.7 1.3 67
2019-08-14 23:00:00 24.6 5 Este 15 Nordeste 0 995.4 1.2 66
2019-08-14 22:00:00 25.6 4 Este 11 Sudeste 0 995.1 1.1 60
2019-08-14 21:00:00 27.4 5 Este 22 Este 0 994.4 0.3 53
2019-08-14 20:00:00 29 10 Este 28 Este 0 994.2 -0.1 48
2019-08-14 19:00:00 30.9 11 Este 39 Este 0 994 -1.3 43
2019-08-14 18:00:00 31.3 16 Este 36 Nordeste 0 994.1 -1.7 42
2019-08-14 17:00:00 31.7 15 Este 36 Este 0 994.3 -1.9 43
2019-08-14 16:00:00 31.4 17 Este 42 Este 0 995.3 -1.1 44
2019-08-14 15:00:00 31.6 15 Este 37 Este 0 995.8 -0.8 45
2019-08-14 14:00:00 30.5 16 Este 42 Este 0 996.2 0 48
2019-08-14 13:00:00 29.8 15 Este 38 Este 0 996.4 0.4 52
2019-08-14 12:00:00 28.6 16 Este 38 Este 0 996.6 1.1 56
2019-08-14 11:00:00 27 18 Este 39 Este 0 996.2 1 64
2019-08-14 10:00:00 25.4 14 Este 34 Este 0 996 1.3 71
2019-08-14 09:00:00 23.8 14 Este 30 Este 0 995.5 0.8 76
2019-08-14 08:00:00 23.2 12 Este 39 Este 0 995.2 0.5 81
2019-08-14 07:00:00 23.2 17 Este 32 Este 0 994.7 -0.3 82
2019-08-14 06:00:00 23.3 17 Este 33 Este 0 994.7 -0.7 81
2019-08-14 05:00:00 23.1 13 Este 31 Este 0 994.7 -0.9 83
2019-08-14 04:00:00 23.2 8 Este 24 Este 0 995 -0.7 82
2019-08-14 03:00:00 23.4 8 Este 29 Este 0 995.4 -0.3 82
2019-08-14 02:00:00 23.4 13 Este 26 Este 0 995.6 0.2 81
2019-08-14 01:00:00 23.5 8 Este 22 Este 0 995.7 0.8 80
2019-08-14 00:00:00 24 7 Este 26 Este 0 995.7 1.4 77
2019-08-13 23:00:00 24.5 10 Este 25 Este 0 995.4 1.4 73
2019-08-13 22:00:00 25.3 10 Este 24 Este 0 994.9 1 69
2019-08-13 21:00:00 27.2 9 Este 25 Este 0 994.3 0.4 58
2019-08-13 20:00:00 30.1 4 Este 21 Oeste 0 994 -0.2 46
2019-08-13 19:00:00 30.6 10 Oeste 23 Oeste 0 993.9 -0.7 38
2019-08-13 18:00:00 31.4 12 Oeste 22 Oeste 0 993.9 -1 36
2019-08-13 17:00:00 31.5 6 Oeste 19 Sudoeste 0 994.2 -1.3 37
2019-08-13 16:00:00 31.2 12 Oeste 22 Oeste 0 994.6 -1.2 38
2019-08-13 15:00:00 29.3 13 Oeste 23 Oeste 0 994.9 -0.7 43
2019-08-13 14:00:00 29.5 9 Oeste 22 Oeste 0 995.5 0.5 45
2019-08-13 13:00:00 29.6 3 Oeste 17 Este 0 995.8 1.2 41
2019-08-13 12:00:00 30.1 6 Sudeste 18 Sudeste 0 995.6 1.4 36
2019-08-13 11:00:00 27.9 6 Este 27 Este 0 995 1.4 39
2019-08-13 10:00:00 24.9 6 Este 19 Este 0 994.6 1.5 57
2019-08-13 09:00:00 23.2 4 Este 15 Este 0 994.2 1.3 64
2019-08-13 08:00:00 21.7 5 Este 17 Este 0 993.6 0.4 64
2019-08-13 07:00:00 22.2 6 Este 19 Este 0 993.1 -0.1 48
2019-08-13 06:00:00 21.2 7 Este 15 Sudeste 0 992.9 -0.7 44
2019-08-13 05:00:00 21.5 6 Este 14 Este 0 993.2 -0.4 41
2019-08-13 04:00:00 22 4 Este 10 Este 0 993.2 -0.7 38
2019-08-13 03:00:00 20.8 5 Este 10 Este 0 993.6 -0.6 46
2019-08-13 02:00:00 20.7 5 Este 8 Este 0 993.6 -0.4 51
2019-08-13 01:00:00 21.2 0 Calma 13 Norte 0 993.9 0.7 52
2019-08-13 00:00:00 22.3 5 Noroeste 23 Oeste 0 994.2 1.4 45
2019-08-12 23:00:00 22.1 14 Oeste 32 Oeste 0 994 1.7 42
2019-08-12 22:00:00 21.7 17 Oeste 29 Oeste 0 993.2 1 47
2019-08-12 21:00:00 23.2 18 Oeste 31 Oeste 0 992.8 0.3 52
2019-08-12 20:00:00 26.6 18 Oeste 37 Oeste 0 992.3 -0.6 29
2019-08-12 19:00:00 27.7 17 Oeste 37 Oeste 0 992.2 -1.4 25
2019-08-12 18:00:00 27.9 21 Oeste 39 Oeste 0 992.5 -1.8 28
2019-08-12 17:00:00 29.2 16 Oeste 36 Oeste 0 992.9 -1.9 28
2019-08-12 16:00:00 28.7 18 Oeste 34 Oeste 0 993.6 -1.3 32
2019-08-12 15:00:00 27.7 20 Oeste 37 Oeste 0 994.3 -0.6 36
2019-08-12 14:00:00 29.6 8 Oeste 22 Norte 0 994.8 0.2 31
2019-08-12 13:00:00 27.6 8 Norte 21 Norte 0 994.9 0.9 25
2019-08-12 12:00:00 24.8 4 Noroeste 17 Norte 0 994.9 1.1 34
2019-08-12 11:00:00 23.3 6 Noroeste 21 Norte 0 994.6 1.4 37
2019-08-12 10:00:00 21.3 6 Norte 22 Norte 0 994 1 39
2019-08-12 09:00:00 19.9 10 Norte 32 Noroeste 0 993.8 0.5 42
2019-08-12 08:00:00 19.3 10 Noroeste 31 Norte 0 993.2 -0.2 44
2019-08-12 07:00:00 19.6 9 Noroeste 25 Noroeste 0 993 -0.7 43
2019-08-12 06:00:00 19.9 10 Noroeste 25 Norte 0 993.3 -1.1 41
2019-08-12 05:00:00 20.3 8 Noroeste 25 Norte 0 993.4 -1.6 41
2019-08-12 04:00:00 21.1 10 Noroeste 31 Noroeste 0 993.7 -1.5 40
2019-08-12 03:00:00 21.7 9 Noroeste 21 Noroeste 0 994.4 -0.7 43
2019-08-12 02:00:00 22.6 11 Noroeste 24 Oeste 0 995 -0.3 41
2019-08-12 01:00:00 22.6 9 Oeste 25 Noroeste 0 995.2 0.2 45
2019-08-12 00:00:00 21.3 11 Oeste 30 Sudoeste 0 995.1 0.5 54
2019-08-11 23:00:00 20.9 14 Sudoeste 28 Oeste 0 995.3 1 60
2019-08-11 22:00:00 21.1 14 Oeste 26 Sudoeste 0 995 0.6 60
2019-08-11 21:00:00 22.8 14 Oeste 24 Sudoeste 0 994.6 0 53
2019-08-11 20:00:00 24.4 14 Oeste 31 Oeste 0 994.3 -0.6 41
2019-08-11 19:00:00 25.9 17 Oeste 38 Oeste 0 994.4 -1.2 39
2019-08-11 18:00:00 27.1 15 Oeste 32 Noroeste 0 994.6 -1.1 35
2019-08-11 17:00:00 28.4 15 Noroeste 32 Noroeste 0 994.9 -1.5 29
2019-08-11 16:00:00 28.1 13 Noroeste 33 Oeste 0 995.6 -1.1 31
2019-08-11 15:00:00 28 17 Oeste 33 Oeste 0 995.7 -1.2 35
2019-08-11 14:00:00 27.6 10 Oeste 30 Oeste 0 996.4 0 36
2019-08-11 13:00:00 27.1 16 Oeste 29 Oeste 0 996.7 0.9 40
2019-08-11 12:00:00 25.7 7 Oeste 16 Oeste 0 996.9 1.5 39
2019-08-11 11:00:00 23.4 5 Noroeste 21 Noroeste 0 996.4 1.5 45
2019-08-11 10:00:00 20.7 12 Noroeste 23 Oeste 0 995.8 1.2 51
2019-08-11 09:00:00 19.5 12 Noroeste 27 Oeste 0 995.4 1.6 55
2019-08-11 08:00:00 19.6 8 Noroeste 18 Noroeste 0 994.9 0.6 56
2019-08-11 07:00:00 20 7 Oeste 24 Norte 0 994.6 0.3 56
2019-08-11 06:00:00 21 12 Norte 28 Norte 0 993.8 -1.2 53
2019-08-11 05:00:00 21.3 11 Norte 27 Norte 0 994.3 -0.8 54
2019-08-11 04:00:00 21.7 7 Noroeste 23 Norte 0 994.3 -0.9 58
2019-08-11 03:00:00 21.8 9 Noroeste 21 Noroeste 0 995 -0.7 66
2019-08-11 02:00:00 21.2 12 Oeste 25 Oeste 0 995.1 -0.9 72
2019-08-11 01:00:00 21.1 15 Oeste 24 Oeste 0 995.2 0.2 77
2019-08-11 00:00:00 21.1 13 Oeste 22 Oeste 0 995.7 1.2 74
2019-08-10 23:00:00 21.4 13 Oeste 29 Oeste 0 996 1.8 67
2019-08-10 22:00:00 21.6 21 Oeste 36 Oeste 0 995 1 66
2019-08-10 21:00:00 23.3 21 Oeste 36 Oeste 0 994.5 0.2 62
2019-08-10 20:00:00 26.3 18 Oeste 34 Oeste 0 994.2 -0.9 50
2019-08-10 19:00:00 28.4 15 Oeste 33 Oeste 0 994 -1.8 45
2019-08-10 18:00:00 28.4 17 Oeste 34 Oeste 0 994.3 -2.1 44
2019-08-10 17:00:00 28.9 16 Oeste 33 Oeste 0 995.1 -2 44
2019-08-10 16:00:00 28.1 19 Oeste 34 Sudoeste 0 995.8 -1.5 50
2019-08-10 15:00:00 28.6 19 Oeste 47 Oeste 0 996.4 -0.9 50
2019-08-10 14:00:00 29.3 17 Sudoeste 30 Sudoeste 0 997.1 0.2 50
2019-08-10 13:00:00 28.7 14 Sudoeste 24 Sudoeste 0 997.3 0.8 52
2019-08-10 12:00:00 27 11 Oeste 18 Noroeste 0 997.3 1.4 60
2019-08-10 11:00:00 25.9 5 Oeste 13 Oeste 0 996.9 1.3 63
2019-08-10 10:00:00 23.6 4 Noroeste 13 Norte 0 996.5 1.3 73
2019-08-10 09:00:00 21.5 5 Norte 18 Norte 0 995.9 0.1 81
2019-08-10 08:00:00 20.3 0 Calma 11 Oeste 0 995.6 -0.9 89
2019-08-10 07:00:00 20.5 6 Noroeste 17 Oeste 0 995.2 -1.3 90
2019-08-10 06:00:00 20.7 6 Sudoeste 13 Oeste 0 995.8 -1.3 92
2019-08-10 05:00:00 21 10 Sudoeste 17 Oeste 0 996.5 -0.9 91
2019-08-10 04:00:00 21.2 12 Oeste 22 Sudoeste 0 996.5 -0.8 90
2019-08-10 03:00:00 21.1 14 Sudoeste 26 Oeste 0 997.1 0.1 90
2019-08-10 02:00:00 21.4 12 Oeste 21 Sudoeste 0 997.4 1.2 90
2019-08-10 01:00:00 21.8 15 Oeste 25 Oeste 0 997.3 1.7 88
2019-08-10 00:00:00 21.7 13 Oeste 28 Oeste 0 997 2 87
2019-08-09 23:00:00 21.9 14 Oeste 26 Oeste 0 996.2 1.7 86
2019-08-09 22:00:00 22 17 Oeste 33 Oeste 0 995.6 1 85
2019-08-09 21:00:00 23 20 Oeste 33 Oeste 0 995 -0.3 82
2019-08-09 20:00:00 23.9 18 Oeste 38 Oeste 0 994.5 -1.2 74
2019-08-09 19:00:00 25.1 21 Oeste 37 Oeste 0 994.6 -1.5 69
2019-08-09 18:00:00 25.1 19 Oeste 68 Oeste 0 995.3 -1.3 69
2019-08-09 17:00:00 26.6 18 Oeste 35 Oeste 0 995.7 -0.9 62
2019-08-09 16:00:00 27 19 Oeste 34 Oeste 0 996.1 -0.8 58
2019-08-09 15:00:00 26.1 17 Oeste 32 Oeste 0 996.6 0.1 61
2019-08-09 14:00:00 25.6 18 Oeste 30 Oeste 0 996.6 0.7 64
2019-08-09 13:00:00 25 17 Oeste 29 Sudoeste 0 996.9 1.4 69
2019-08-09 12:00:00 23.9 17 Oeste 29 Oeste 0 996.5 1.1 73
2019-08-09 11:00:00 23.7 7 Oeste 20 Oeste 0 995.9 0.7 74
2019-08-09 10:00:00 21.3 9 Oeste 19 Oeste 0 995.5 0.7 83
2019-08-09 09:00:00 20.6 9 Oeste 18 Oeste 0 995.4 0.6 87
2019-08-09 08:00:00 20.2 8 Oeste 16 Oeste 0 995.2 0.5 90
2019-08-09 07:00:00 20.3 8 Oeste 22 Oeste 0 994.8 -0.1 90
2019-08-09 06:00:00 20.5 11 Oeste 20 Oeste 0 994.8 -0.2 89
2019-08-09 05:00:00 20.7 12 Oeste 21 Sudoeste 0 994.7 -0.4 88
2019-08-09 04:00:00 20.7 12 Oeste 22 Oeste 0 994.9 0.3 88
2019-08-09 03:00:00 20.5 6 Oeste 17 Oeste 0 995 0.8 88
2019-08-09 02:00:00 20.7 8 Oeste 26 Oeste 0 995.1 1.4 86
2019-08-09 01:00:00 21 16 Oeste 27 Noroeste 0 994.6 2 82
2019-08-09 00:00:00 22 15 Oeste 33 Oeste 0 994.2 2 69
2019-08-08 23:00:00 21.5 21 Oeste 32 Oeste 0 993.7 2 76
2019-08-08 22:00:00 23.4 18 Oeste 28 Oeste 0 992.6 0.6 60
2019-08-08 21:00:00 25.3 19 Oeste 32 Oeste 0 992.2 0.1 54
2019-08-08 20:00:00 27.6 18 Oeste 34 Oeste 0 991.7 -0.7 46
2019-08-08 19:00:00 29.6 20 Oeste 33 Oeste 0 992 -0.8 41
2019-08-08 18:00:00 30.7 19 Oeste 34 Oeste 0 992.1 -1.2 39
2019-08-08 17:00:00 30 19 Oeste 32 Oeste 0 992.4 -1 43
2019-08-08 16:00:00 30.2 18 Oeste 33 Oeste 0 992.8 -1 43
2019-08-08 15:00:00 30.6 18 Oeste 31 Oeste 0 993.3 -0.4 42
2019-08-08 14:00:00 31.1 10 Oeste 23 Sudoeste 0 993.4 -0.1 44
2019-08-08 13:00:00 28.5 6 Sudoeste 14 Oeste 0 993.8 0.6 52
2019-08-08 12:00:00 27.5 0 Calma 9 Oeste 0 993.7 0.8 58
2019-08-08 11:00:00 24.6 5 Sudoeste 10 Sudoeste 0 993.5 1 68
2019-08-08 10:00:00 21.8 5 Sudoeste 15 Sudoeste 0 993.2 1 83
2019-08-08 09:00:00 20.1 8 Sudoeste 15 Sudoeste 0 992.9 0.7 91
2019-08-08 08:00:00 19.5 7 Sudoeste 12 Sudoeste 0 992.5 0.3 91
2019-08-08 07:00:00 20.3 2 Oeste 6 Oeste 0 992.2 -0.4 86
2019-08-08 06:00:00 21.1 4 Noroeste 9 Oeste 0 992.2 -0.9 78
2019-08-08 05:00:00 20.6 2 Noroeste 11 Noroeste 0 992.2 -1.4 82
2019-08-08 04:00:00 20.8 7 Oeste 12 Oeste 0 992.6 -1.4 83
2019-08-08 03:00:00 21 5 Oeste 13 Oeste 0 993.1 -0.6 82
2019-08-08 02:00:00 21.2 6 Oeste 12 Oeste 0 993.6 0.1 82
2019-08-08 01:00:00 21.5 4 Oeste 18 Oeste 0 994 1.4 76
2019-08-08 00:00:00 21.5 6 Oeste 19 Oeste 0 993.7 1.9 77
2019-08-07 23:00:00 22.4 6 Oeste 23 Oeste 0 993.5 2.2 75
2019-08-07 22:00:00 23.3 13 Oeste 33 Oeste 0 992.6 1.3 68
2019-08-07 21:00:00 24.5 18 Oeste 33 Oeste 0 991.8 0.1 56
2019-08-07 20:00:00 27 20 Oeste 33 Oeste 0 991.3 -0.7 45
2019-08-07 19:00:00 29.5 18 Oeste 31 Oeste 0 991.3 -1 37
2019-08-07 18:00:00 30.1 16 Oeste 32 Noroeste 0 991.7 -0.9 33
2019-08-07 17:00:00 30.2 17 Oeste 35 Oeste 0 992 -0.9 40
2019-08-07 16:00:00 29.6 16 Oeste 28 Oeste 0 992.3 -0.9 47
2019-08-07 15:00:00 28.6 13 Oeste 26 Sudoeste 0 992.6 -0.9 49
2019-08-07 14:00:00 28.2 11 Oeste 23 Oeste 0 992.9 -0.2 52
2019-08-07 13:00:00 27.2 9 Sudoeste 21 Sudoeste 0 993.2 0.6 53
2019-08-07 12:00:00 25.5 10 Sudoeste 20 Sudoeste 0 993.5 1.7 62
2019-08-07 11:00:00 23.6 6 Sudoeste 15 Sudoeste 0 993.1 1.5 74
2019-08-07 10:00:00 21.3 8 Sudoeste 21 Sudoeste 0 992.6 1.5 83
2019-08-07 09:00:00 20 11 Sudoeste 18 Sudoeste 0 991.8 0.8 89
2019-08-07 08:00:00 19.7 9 Sudoeste 18 Sudoeste 0 991.6 0.3 90
2019-08-07 07:00:00 19.6 8 Sudoeste 15 Sudoeste 0 991.1 -0.1 91
2019-08-07 06:00:00 19.5 7 Sudoeste 14 Sudoeste 0 991 -0.4 90
2019-08-07 05:00:00 19.8 9 Sudoeste 19 Oeste 0 991.3 -0.5 90
2019-08-07 04:00:00 19.5 9 Sudoeste 18 Sudoeste 0 991.2 -0.6 92
2019-08-07 03:00:00 19.4 5 Sur 12 Sudoeste 0 991.4 -0.8 89
2019-08-07 02:00:00 20.1 2 Sur 14 Oeste 0 991.8 -0.1 81
2019-08-07 01:00:00 20.7 8 Oeste 18 Oeste 0 991.8 0.5 81
2019-08-07 00:00:00 20.9 10 Oeste 19 Oeste 0 992.2 1.2 78
2019-08-06 23:00:00 21.1 3 Oeste 16 Oeste 0 991.9 2.1 73
2019-08-06 22:00:00 22.2 10 Oeste 22 Oeste 0 991.3 1.4 72
2019-08-06 21:00:00 23.7 14 Oeste 32 Noroeste 0 991 0.5 63
2019-08-06 20:00:00 27.3 8 Oeste 30 Oeste 0 989.8 -1 51
2019-08-06 19:00:00 26.4 19 Oeste 36 Oeste 0 989.9 -1.5 59
2019-08-06 18:00:00 26 22 Oeste 37 Oeste 0 990.5 -1.5 61
2019-08-06 17:00:00 30 16 Oeste 31 Oeste 0 990.8 -1.7 37
2019-08-06 16:00:00 30.5 16 Oeste 27 Oeste 0 991.4 -1.7 32
2019-08-06 15:00:00 31.3 10 Oeste 19 Sudoeste 0 992 -1.3 33
2019-08-06 14:00:00 29.9 6 Oeste 17 Oeste 0 992.5 -0.4 39
2019-08-06 13:00:00 27.4 4 Oeste 15 Oeste 0 993.1 0.4 39
2019-08-06 12:00:00 24 5 Oeste 14 Sudoeste 0 993.3 1.2 57
2019-08-06 11:00:00 22.6 6 Oeste 13 Oeste 0 992.9 1.2 72
2019-08-06 10:00:00 19.9 4 Sudoeste 10 Sudeste 0 992.7 0.7 87
2019-08-06 09:00:00 18.7 5 Sur 11 Sur 0 992.1 0.1 92
2019-08-06 08:00:00 17.8 5 Oeste 9 Sur 0 991.7 -1.1 87
2019-08-06 07:00:00 17.6 5 Sur 10 Sur 0 992 -0.9 88
2019-08-06 06:00:00 18.3 3 Sudoeste 12 Sudeste 0 992 -0.7 90
2019-08-06 05:00:00 18.8 6 Sur 14 Sur 0 992.8 -0.1 88
2019-08-06 04:00:00 19 4 Sudoeste 9 Oeste 0 992.9 -0.3 85
2019-08-06 03:00:00 19.4 3 Oeste 10 Oeste 0 992.7 -0.5 84
2019-08-06 02:00:00 19.7 3 Oeste 12 Oeste 0 992.9 -0.4 85
2019-08-06 01:00:00 20.1 5 Sudoeste 14 Sudoeste 0 993.2 0.9 78
2019-08-06 00:00:00 20.4 5 Sudoeste 14 Oeste 0 993.2 1.6 76
2019-08-05 23:00:00 21.5 4 Sudoeste 17 Oeste 0 993.3 2.1 67
2019-08-05 22:00:00 23.3 5 Oeste 24 Oeste 0 992.3 0.9 57
2019-08-05 21:00:00 24.2 17 Oeste 29 Oeste 0 991.6 0 55
2019-08-05 20:00:00 26.3 17 Oeste 32 Oeste 0 991.2 -0.7 54
2019-08-05 19:00:00 27.8 21 Oeste 34 Oeste 0 991.4 -0.8 46
2019-08-05 18:00:00 27.6 21 Oeste 32 Oeste 0 991.6 -0.9 44
2019-08-05 17:00:00 28.6 19 Oeste 32 Oeste 0 991.9 -1 48
2019-08-05 16:00:00 28.8 17 Oeste 31 Sudoeste 0 992.2 -1.4 51
2019-08-05 15:00:00 28.8 16 Oeste 27 Sudoeste 0 992.5 -1 48
2019-08-05 14:00:00 29.6 9 Oeste 16 Oeste 0 992.9 -0.4 44
2019-08-05 13:00:00 28.9 5 Sudeste 14 Sudeste 0 993.6 0.5 51
2019-08-05 12:00:00 26.9 6 Este 15 Sudeste 0 993.5 0.5 60
2019-08-05 11:00:00 25.1 4 Este 11 Este 0 993.3 0.4 64
2019-08-05 10:00:00 21.6 4 Sudeste 8 Sudeste 0 993.1 0.6 82
2019-08-05 09:00:00 19.8 3 Sudeste 10 Sudoeste 0 993 0.6 89
2019-08-05 08:00:00 19.4 7 Sudoeste 13 Sudoeste 0 992.9 0.4 90
2019-08-05 07:00:00 19.6 5 Sudoeste 11 Sudoeste 0 992.5 -0.4 87
2019-08-05 06:00:00 19.7 5 Sudoeste 9 Oeste 0 992.4 -0.5 84
2019-08-05 05:00:00 20.2 2 Sudoeste 8 Sudoeste 0 992.5 -0.9 79
2019-08-05 04:00:00 20.7 5 Sudoeste 11 Sur 0 992.9 -0.5 78
2019-08-05 03:00:00 21.4 2 Oeste 5 Sur 0 992.9 -0.6 67
2019-08-05 02:00:00 21.9 0 Calma 8 Noroeste 0 993.4 0.2 67
2019-08-05 01:00:00 23.4 4 Noroeste 9 Norte 0 993.4 0.5 58
2019-08-05 00:00:00 23.3 5 Noroeste 17 Oeste 0 993.5 1.4 61
2019-08-04 23:00:00 23.2 14 Oeste 22 Noroeste 0 993.2 1.5 65
2019-08-04 22:00:00 23.3 6 Oeste 22 Oeste 0 992.9 0.7 66
2019-08-04 21:00:00 23.9 14 Oeste 28 Oeste 0 992.1 -0.2 66
2019-08-04 20:00:00 25.6 18 Oeste 29 Oeste 0 991.7 -0.8 55
2019-08-04 19:00:00 27.1 15 Oeste 27 Oeste 0 992.2 -0.8 52
2019-08-04 18:00:00 27.9 14 Oeste 28 Sudoeste 0 992.3 -1.1 53
2019-08-04 17:00:00 27.6 14 Oeste 27 Oeste 0 992.5 -1.2 54
2019-08-04 16:00:00 27.4 16 Oeste 32 Oeste 0 993 -1.2 52
2019-08-04 15:00:00 27 15 Oeste 29 Oeste 0 993.4 -0.8 52
2019-08-04 14:00:00 26.1 14 Oeste 24 Sudoeste 0 993.7 -0.4 55
2019-08-04 13:00:00 25.7 9 Sudoeste 20 Oeste 0 994.2 0.2 57
2019-08-04 12:00:00 24.6 6 Oeste 16 Oeste 0 994.2 0.4 61
2019-08-04 11:00:00 23.2 7 Sudoeste 14 Sudoeste 0 994.1 0.8 70
2019-08-04 10:00:00 20.7 6 Sudoeste 15 Sudoeste 0 994 0.8 83
2019-08-04 09:00:00 19.5 6 Sudoeste 12 Sudoeste 0 993.8 0.8 90
2019-08-04 08:00:00 19.2 5 Sur 12 Sur 0 993.3 0.1 91
2019-08-04 07:00:00 19.3 5 Sur 13 Sur 0 993.2 -0.3 92
2019-08-04 06:00:00 19.3 5 Sur 12 Sur 0 993 -0.7 91
2019-08-04 05:00:00 19.3 5 Sur 12 Sur 0 993.2 -0.2 91
2019-08-04 04:00:00 19.4 4 Sudoeste 12 Sudoeste 0 993.5 0.1 89
2019-08-04 03:00:00 19.8 5 Sudoeste 13 Oeste 0 993.7 0.8 86
2019-08-04 02:00:00 20.2 6 Oeste 15 Oeste 0 993.4 0.5 86
2019-08-04 01:00:00 20.7 7 Sudoeste 14 Oeste 0 993.4 1.1 82
2019-08-04 00:00:00 21.5 5 Oeste 12 Oeste 0 992.9 1.2 71
2019-08-03 23:00:00 23.1 2 Oeste 17 Oeste 0 992.9 1.3 70
2019-08-03 22:00:00 23.3 8 Oeste 19 Oeste 0 992.3 0.6 73
2019-08-03 21:00:00 25.3 9 Oeste 20 Oeste 0 991.7 -0.3 62
2019-08-03 20:00:00 27.1 10 Oeste 23 Oeste 0 991.6 -1.1 46
2019-08-03 19:00:00 29.1 12 Oeste 23 Oeste 0 991.7 -1.3 39
2019-08-03 18:00:00 29.3 13 Oeste 23 Sudoeste 0 992 -1.4 34
2019-08-03 17:00:00 28.9 12 Oeste 25 Oeste 0 992.7 -0.9 37
2019-08-03 16:00:00 28.4 11 Sudoeste 25 Sudoeste 0 993 -0.9 45
2019-08-03 15:00:00 27.7 12 Sudoeste 22 Sudoeste 0 993.4 -0.5 49
2019-08-03 14:00:00 28.3 10 Sudoeste 20 Sudoeste 0 993.6 0 43
2019-08-03 13:00:00 27.4 6 Sudoeste 16 Sudoeste 0 993.9 0.7 47
2019-08-03 12:00:00 24.3 5 Sudoeste 18 Sudoeste 0 993.9 1.1 62
2019-08-03 11:00:00 23.3 8 Sur 19 Sudoeste 0 993.6 1.4 71
2019-08-03 10:00:00 20.6 5 Sudeste 16 Sur 0 993.2 1 83
2019-08-03 09:00:00 19.5 4 Sur 13 Sudeste 0 992.8 0.9 88
2019-08-03 08:00:00 19.2 7 Sudeste 16 Sur 0 992.2 0.2 90
2019-08-03 07:00:00 18.9 6 Sur 12 Sudeste 0 992.2 -0.3 91
2019-08-03 06:00:00 19.2 3 Sudoeste 6 Sudoeste 0 991.9 -0.8 87
2019-08-03 05:00:00 19.5 0 Calma 8 Sudoeste 0 992 -0.6 80
2019-08-03 04:00:00 19.7 6 Sudoeste 12 Oeste 0 992.5 -0.4 83
2019-08-03 03:00:00 20.9 6 Oeste 8 Sudoeste 0 992.7 0.1 68
2019-08-03 02:00:00 22.9 3 Oeste 14 Oeste 0 992.6 0.4 51
2019-08-03 01:00:00 23.6 9 Oeste 17 Oeste 0 992.9 0.9 37
2019-08-03 00:00:00 23.1 5 Oeste 10 Oeste 0 992.6 1 51
2019-08-02 23:00:00 24.1 2 Noroeste 15 Noroeste 0 992.2 0.6 42
2019-08-02 22:00:00 24.4 7 Noroeste 20 Oeste 0 992 0 42
2019-08-02 21:00:00 25.4 13 Oeste 28 Oeste 0 991.6 -0.7 45
2019-08-02 20:00:00 27.4 19 Oeste 35 Oeste 0 991.6 -1.1 36
2019-08-02 19:00:00 28.1 19 Oeste 50 Oeste 0 992 -1.1 40
2019-08-02 18:00:00 29.5 17 Oeste 31 Oeste 0 992.3 -1.1 40
2019-08-02 17:00:00 28.5 18 Oeste 33 Oeste 0 992.7 -1 38
2019-08-02 16:00:00 28.3 17 Oeste 34 Oeste 0 993.1 -0.7 45
2019-08-02 15:00:00 28.2 18 Oeste 32 Oeste 0 993.4 -0.1 48
2019-08-02 14:00:00 28.7 14 Sudoeste 21 Sudoeste 0 993.7 0.5 43
2019-08-02 13:00:00 27.5 10 Sudoeste 19 Sudoeste 0 993.8 0.9 52
2019-08-02 12:00:00 28.1 4 Oeste 11 Oeste 0 993.5 0.8 45
2019-08-02 11:00:00 25.7 2 Sudeste 11 Este 0 993.2 0.8 64
2019-08-02 10:00:00 23.6 0 Calma 10 Sudeste 0 992.9 0.8 73
2019-08-02 09:00:00 20.8 6 Sudoeste 12 Sudoeste 0 992.7 0.8 85
2019-08-02 08:00:00 19.8 6 Sudoeste 11 Sudoeste 0 992.4 0.4 89
2019-08-02 07:00:00 20.1 5 Sudoeste 10 Sudoeste 0 992.1 -0.1 83
2019-08-02 06:00:00 20.9 6 Sudoeste 9 Sudoeste 0 991.9 -0.6 76
2019-08-02 05:00:00 21.7 5 Sudoeste 6 Sudoeste 0 992 -0.8 61
2019-08-02 04:00:00 22.4 5 Oeste 10 Oeste 0 992.2 -0.7 55
2019-08-02 03:00:00 23.3 3 Oeste 8 Noroeste 0 992.5 0 51
2019-08-02 02:00:00 23.5 2 Norte 12 Norte 0 992.8 0.4 50
2019-08-02 01:00:00 24 5 Noroeste 19 Oeste 0 992.9 1.6 46
2019-08-02 00:00:00 23.4 10 Noroeste 21 Noroeste 0 992.5 1.6 62
2019-08-01 23:00:00 23.3 8 Oeste 29 Noroeste 0 992.4 1.7 74
2019-08-01 22:00:00 24 20 Oeste 31 Oeste 0 991.3 0.5 72
2019-08-01 21:00:00 25.6 16 Oeste 30 Oeste 0 990.9 0.3 64
2019-08-01 20:00:00 27.9 16 Oeste 28 Oeste 0 990.7 0 58
2019-08-01 19:00:00 29.2 14 Oeste 30 Oeste 0 990.8 -0.3 54
2019-08-01 18:00:00 29.7 18 Oeste 35 Oeste 0 990.6 -0.8 53
2019-08-01 17:00:00 31 13 Oeste 28 Oeste 0 990.7 -1 49
2019-08-01 16:00:00 32.4 7 Este 26 Norte 0 991.1 -0.7 44
2019-08-01 15:00:00 31.5 5 Nordeste 23 Este 0 991.4 -0.2 45
2019-08-01 14:00:00 31.1 8 Este 22 Este 0 991.7 0.3 46
2019-08-01 13:00:00 30.5 6 Este 24 Este 0 991.8 0.7 50
2019-08-01 12:00:00 29.4 12 Este 30 Este 0 991.6 0.6 53
2019-08-01 11:00:00 27.8 8 Este 28 Este 0 991.4 1 60
2019-08-01 10:00:00 25.6 10 Este 32 Este 0 991.1 0.7 68
2019-08-01 09:00:00 23.7 10 Este 24 Este 0 991 0.8 77
2019-08-01 08:00:00 22.6 6 Este 22 Este 0 990.4 0 82
2019-08-01 07:00:00 22.3 6 Este 21 Este 0 990.4 0.2 82
2019-08-01 06:00:00 22.3 8 Este 19 Este 0 990.2 -0.3 83
2019-08-01 05:00:00 22 8 Este 18 Este 0 990.4 -0.3 83
2019-08-01 04:00:00 22.4 10 Este 22 Este 0 990.2 -0.5 82
2019-08-01 03:00:00 22.7 8 Este 17 Este 0 990.5 0 81
2019-08-01 02:00:00 23.2 6 Este 23 Este 0 990.7 0.6 79
2019-08-01 01:00:00 23.3 11 Este 23 Este 0 990.7 1.1 78
2019-08-01 00:00:00 23.6 9 Este 21 Este 0 990.5 1.5 76
2019-07-31 23:00:00 24 8 Este 24 Este 0 990.1 1.4 74
2019-07-31 22:00:00 24.7 8 Este 29 Este 0 989.6 1.1 71
2019-07-31 21:00:00 25.6 13 Este 36 Este 0 989 0 65
2019-07-31 20:00:00 27.3 15 Este 42 Este 0 988.7 -0.6 59
2019-07-31 19:00:00 28.7 18 Este 42 Este 0 988.5 -1.5 54
2019-07-31 18:00:00 30 14 Este 42 Este 0 989 -1.1 50
2019-07-31 17:00:00 30.5 20 Este 47 Este 0 989.3 -1.2 47
2019-07-31 16:00:00 29.9 19 Este 48 Este 0 990 -0.5 50
2019-07-31 15:00:00 29.7 18 Este 43 Este 0 990.1 -0.6 51
2019-07-31 14:00:00 29.8 16 Este 40 Este 0 990.5 -0.2 50
2019-07-31 13:00:00 29.5 17 Este 41 Sudeste 0 990.5 0.1 50
2019-07-31 12:00:00 28.1 15 Este 48 Este 0 990.7 0.5 54
2019-07-31 11:00:00 26.7 17 Este 41 Este 0 990.7 0.9 58
2019-07-31 10:00:00 25.3 18 Este 35 Este 0 990.4 1 63
2019-07-31 09:00:00 23.4 9 Este 31 Este 0 990.2 0.8 70
2019-07-31 08:00:00 22.1 13 Este 31 Este 0 989.8 0.2 74
2019-07-31 07:00:00 22.5 9 Este 32 Este 0 989.4 -0.3 76
2019-07-31 06:00:00 22.9 13 Este 39 Este 0 989.4 -0.6 73
2019-07-31 05:00:00 23.3 14 Este 41 Este 0 989.6 -0.7 64
2019-07-31 04:00:00 23.3 12 Este 36 Este 0 989.7 -0.4 62
2019-07-31 03:00:00 24 10 Este 19 Sur 0 990 -0.4 43
2019-07-31 02:00:00 25.7 5 Este 12 Nordeste 0 990.3 -0.4 33
2019-07-31 01:00:00 26.9 3 Nordeste 12 Norte 0 990.1 0.6 26
2019-07-31 00:00:00 26.8 4 Norte 11 Norte 0 990.4 1.6 26
2019-07-30 23:00:00 26.6 4 Nordeste 24 Noroeste 0 990.7 1.7 27
2019-07-30 22:00:00 27.5 14 Noroeste 28 Oeste 0 989.5 0.1 26
2019-07-30 21:00:00 28.8 15 Oeste 25 Noroeste 0 988.8 -0.9 25
2019-07-30 20:00:00 30.4 16 Oeste 27 Noroeste 0 989 -1 24
2019-07-30 19:00:00 31.4 16 Oeste 29 Oeste 0 989.4 -1.3 25
2019-07-30 18:00:00 32.4 13 Oeste 29 Oeste 0 989.7 -1.4 26
2019-07-30 17:00:00 32.9 14 Oeste 30 Oeste 0 990 -1.7 27
2019-07-30 16:00:00 31.6 17 Oeste 33 Oeste 0 990.7 -1.6 32
2019-07-30 15:00:00 30.2 17 Oeste 33 Oeste 0 991.1 -1.3 36
2019-07-30 14:00:00 28.2 16 Oeste 27 Oeste 0 991.7 -0.6 39
2019-07-30 13:00:00 27.8 12 Oeste 20 Sudoeste 0 992.3 0.2 37
2019-07-30 12:00:00 27.1 6 Oeste 14 Oeste 0 992.4 0.6 37
2019-07-30 11:00:00 25.1 3 Noroeste 9 Norte 0 992.3 0.9 38
2019-07-30 10:00:00 23 5 Norte 14 Norte 0 992.1 1 43
2019-07-30 09:00:00 20.9 5 Norte 21 Norte 0 991.8 0.6 45
2019-07-30 08:00:00 20 10 Norte 27 Norte 0 991.4 0.3 47
2019-07-30 07:00:00 20.2 16 Norte 28 Norte 0 991.1 0.1 45
2019-07-30 06:00:00 21.1 8 Noroeste 30 Norte 0 991.2 -0.2 44
2019-07-30 05:00:00 22.2 12 Norte 30 Norte 0 991.1 -0.6 43
2019-07-30 04:00:00 22.5 8 Noroeste 19 Oeste 0 991 -0.8 50
2019-07-30 03:00:00 22.2 5 Noroeste 12 Noroeste 0 991.4 -0.4 60
2019-07-30 02:00:00 21.5 2 Oeste 9 Oeste 0 991.7 0 72
2019-07-30 01:00:00 22.8 4 Oeste 11 Oeste 0 991.8 0.7 68
2019-07-30 00:00:00 23.2 3 Noroeste 23 Sudoeste 0 991.8 1 65
2019-07-29 23:00:00 23.2 14 Oeste 31 Oeste 0 991.7 1.2 65
2019-07-29 22:00:00 23.2 17 Oeste 31 Oeste 0 991.1 0.5 67
2019-07-29 21:00:00 24.2 17 Oeste 30 Oeste 0 990.8 0 63
2019-07-29 20:00:00 26.7 16 Oeste 36 Oeste 0 990.5 -0.5 55
2019-07-29 19:00:00 27.1 20 Oeste 33 Oeste 0 990.6 -1 53
2019-07-29 18:00:00 27.4 18 Oeste 32 Oeste 0 990.8 -1.2 50
2019-07-29 17:00:00 27.3 19 Oeste 31 Oeste 0 991 -1.2 45
2019-07-29 16:00:00 27 17 Oeste 32 Oeste 0 991.6 -0.9 44
2019-07-29 15:00:00 25.8 15 Oeste 30 Oeste 0 992 -0.5 51
2019-07-29 14:00:00 26.1 13 Oeste 27 Sudoeste 0 992.2 0 52
2019-07-29 13:00:00 26 8 Oeste 18 Sudoeste 0 992.5 0.5 55
2019-07-29 12:00:00 24.1 5 Sudoeste 15 Sudoeste 0 992.5 1.1 65
2019-07-29 11:00:00 21.6 8 Sudoeste 17 Sudoeste 0 992.2 1.2 77
2019-07-29 10:00:00 21 11 Sudoeste 18 Sudoeste 0 992 1.4 81
2019-07-29 09:00:00 19.8 12 Sudoeste 19 Sudoeste 0 991.4 1.1 88
2019-07-29 08:00:00 19.3 9 Sudoeste 16 Sudoeste 0 991 0.8 89
2019-07-29 07:00:00 19.1 9 Sudoeste 21 Sudoeste 0 990.6 0.2 89
2019-07-29 06:00:00 18.8 12 Sudoeste 19 Sudoeste 0 990.3 -0.4 89
2019-07-29 05:00:00 18.5 10 Sudoeste 15 Sudoeste 0 990.2 -0.7 89
2019-07-29 04:00:00 18.4 6 Sudoeste 16 Sur 0 990.4 -0.5 89
2019-07-29 03:00:00 18.5 6 Sudoeste 11 Sudoeste 0 990.7 -0.1 88
2019-07-29 02:00:00 18.8 6 Sudoeste 18 Sudoeste 0 990.9 0.2 86
2019-07-29 01:00:00 19.1 10 Sudoeste 17 Oeste 0 990.9 1 85
2019-07-29 00:00:00 19.6 10 Oeste 18 Oeste 0 990.8 1.2 81
2019-07-28 23:00:00 19.7 10 Oeste 22 Oeste 0 990.7 1.3 80
2019-07-28 22:00:00 20.2 12 Oeste 24 Oeste 0 989.9 0.6 77
2019-07-28 21:00:00 21.1 11 Oeste 27 Oeste 0 989.6 0.2 72
2019-07-28 20:00:00 23.4 15 Oeste 28 Oeste 0 989.4 -0.5 65
2019-07-28 19:00:00 24.1 17 Oeste 31 Oeste 0 989.3 -0.9 58
2019-07-28 18:00:00 24.5 17 Oeste 30 Oeste 0 989.4 -0.8 58
2019-07-28 17:00:00 24.8 17 Oeste 32 Sudoeste 0 989.9 -0.8 55
2019-07-28 16:00:00 25.1 15 Oeste 31 Oeste 0 990.2 -0.6 53
2019-07-28 15:00:00 24.9 13 Oeste 29 Sudoeste 0 990.2 -0.6 54
2019-07-28 14:00:00 25.3 10 Oeste 24 Oeste 0 990.7 0 52
2019-07-28 13:00:00 24.4 13 Sudoeste 24 Sudoeste 0 990.8 0.3 56
2019-07-28 12:00:00 23.9 9 Oeste 27 Oeste 0 990.8 0.5 59
2019-07-28 11:00:00 23.2 9 Oeste 21 Sudoeste 0 990.7 0.7 62
2019-07-28 10:00:00 21.1 5 Oeste 15 Oeste 0 990.5 0.6 70
2019-07-28 09:00:00 19.7 6 Noroeste 14 Oeste 0 990.3 0.3 78
2019-07-28 08:00:00 19.5 6 Oeste 13 Oeste 0 990 -0.2 81
2019-07-28 07:00:00 19.6 8 Oeste 16 Oeste 0 989.9 -0.5 79
2019-07-28 06:00:00 19.7 9 Oeste 21 Oeste 0 990 -0.7 81
2019-07-28 05:00:00 19.6 8 Oeste 20 Oeste 0 990.2 -1 80
2019-07-28 04:00:00 19.7 9 Oeste 19 Oeste 0 990.4 -1.5 84
2019-07-28 03:00:00 19.6 9 Oeste 23 Sudoeste 0 990.7 -1.2 84
2019-07-28 02:00:00 20.2 11 Oeste 23 Oeste 0 991.2 -0.4 83
2019-07-28 01:00:00 20.1 10 Oeste 24 Oeste 0 991.9 0.5 86
2019-07-28 00:00:00 20.3 17 Oeste 33 Oeste 0 991.9 0.9 86
2019-07-27 23:00:00 20.5 15 Oeste 28 Oeste 0 991.6 0.4 85
2019-07-26 12:00:00 25 11 Oeste 24 Oeste 0 994.5 0.6 59
2019-07-26 11:00:00 23.7 13 Oeste 23 Sudoeste 0 994.5 1 67
2019-07-26 10:00:00 23 9 Oeste 22 Oeste 0 994.2 1 77
2019-07-26 09:00:00 21.2 11 Oeste 24 Oeste 0 993.9 1 84
2019-07-26 08:00:00 20.8 11 Oeste 20 Oeste 0 993.5 0.3 89
2019-07-26 07:00:00 20.5 6 Sudoeste 16 Sudoeste 0 993.2 -0.2 89
2019-07-26 06:00:00 20.1 8 Sudoeste 15 Sudoeste 0 992.9 -0.8 88
2019-07-26 05:00:00 20.1 6 Sudoeste 19 Sudoeste 0 993.2 -1 87
2019-07-26 04:00:00 20.2 10 Sudoeste 20 Sudoeste 0 993.4 -0.8 87
2019-07-26 03:00:00 20.3 9 Sudoeste 17 Sudoeste 0 993.7 -0.5 89
2019-07-26 02:00:00 20.6 12 Sudoeste 23 Sudoeste 0 994.2 0.6 88
2019-07-26 01:00:00 20.3 6 Sudoeste 13 Sudoeste 0 994.2 0.9 90
2019-07-26 00:00:00 20.4 7 Sudoeste 12 Sudoeste 0 994.2 1.6 88
2019-07-25 23:00:00 21.1 6 Sudoeste 23 Oeste 0 993.6 1.2 86
2019-07-25 22:00:00 22.3 14 Oeste 23 Oeste 0 993.3 1.2 82
2019-07-25 21:00:00 23.3 9 Oeste 32 Oeste 0 992.6 0.1 78
2019-07-25 20:00:00 24.6 20 Oeste 34 Oeste 0 992.4 -0.4 70
2019-07-25 19:00:00 27.7 13 Oeste 25 Oeste 0 992.1 -0.9 57
2019-07-25 18:00:00 28.1 12 Oeste 23 Oeste 0 992.5 -0.7 56
2019-07-25 17:00:00 27.3 14 Oeste 27 Oeste 0 992.8 -0.8 60
2019-07-25 16:00:00 28.5 16 Oeste 27 Sudoeste 0 993 -0.6 57
2019-07-25 15:00:00 28.3 5 Sudoeste 18 Sur 0 993.2 -0.1 58
2019-07-25 14:00:00 26.7 8 Sudoeste 24 Sudoeste 0 993.6 0.6 64
2019-07-25 13:00:00 26.5 14 Sudoeste 24 Oeste 0 993.6 0.7 65
2019-07-25 12:00:00 28.3 11 Oeste 21 Sudoeste 0 993.3 0.9 60
2019-07-25 11:00:00 26.9 5 Sudeste 12 Este 0 993 1.2 65
2019-07-25 10:00:00 23.3 4 Sudeste 12 Este 0 992.9 1 83
2019-07-25 09:00:00 21.2 0 Calma 7 Sur 0 992.4 0.9 89
2019-07-25 08:00:00 20.8 4 Sudeste 15 Sudeste 0 991.8 0.1 91
2019-07-25 07:00:00 20.7 5 Sur 10 Sur 0 991.9 -0.1 90
2019-07-25 06:00:00 21.2 6 Sudeste 13 Sudeste 0 991.5 -0.9 87
2019-07-25 05:00:00 21.6 5 Sur 16 Sudeste 0 991.7 -0.8 85
2019-07-25 04:00:00 21.7 5 Sur 13 Sur 0 992 -0.6 82
2019-07-25 03:00:00 21.8 8 Sudoeste 17 Sudoeste 0 992.4 0.2 83
2019-07-25 02:00:00 23.6 4 Este 9 Nordeste 0 992.5 0.5 65
2019-07-25 01:00:00 24.2 4 Nordeste 13 Nordeste 0 992.6 1.5 63
2019-07-25 00:00:00 24.4 6 Nordeste 21 Nordeste 0 992.2 1.4 65
2019-07-24 23:00:00 25 6 Este 18 Este 0 992 1.1 59
2019-07-24 22:00:00 26.3 5 Este 13 Sudeste 0 991.1 0.3 52
2019-07-24 21:00:00 27.2 4 Noroeste 17 Oeste 0 990.8 -0.4 58
2019-07-24 20:00:00 28.5 9 Oeste 23 Oeste 0 990.9 -0.9 56
2019-07-24 19:00:00 32.1 4 Noroeste 14 Noroeste 0 990.8 -1.3 45
2019-07-24 18:00:00 33.1 2 Oeste 18 Este 0 991.2 -1.6 43
2019-07-24 17:00:00 33.8 3 Oeste 24 Este 0 991.8 -1.1 42
2019-07-24 16:00:00 33.8 5 Este 19 Sudeste 0 992.1 -1 37
2019-07-24 15:00:00 32.8 4 Este 17 Este 0 992.8 -0.6 43
2019-07-24 14:00:00 31.5 4 Este 21 Sudeste 0 992.9 -0.2 48
2019-07-24 13:00:00 29.2 6 Sudeste 20 Sur 0 993.1 0.2 56
2019-07-24 12:00:00 27.9 4 Sur 18 Sudeste 0 993.4 1 61
2019-07-24 11:00:00 26.9 5 Sudeste 19 Sur 0 993.1 1 63
2019-07-24 10:00:00 24.9 7 Sudeste 19 Sudeste 0 992.9 0.8 73
2019-07-24 09:00:00 23.2 5 Este 14 Sudeste 0 992.4 0.2 82
2019-07-24 08:00:00 21.5 2 Nordeste 13 Este 0 992.1 -0.5 86
2019-07-24 07:00:00 21.5 5 Este 13 Este 0 992.1 -1.1 86
2019-07-24 06:00:00 21.8 5 Este 14 Este 0 992.2 -1 85
2019-07-24 05:00:00 22.8 5 Este 16 Este 0 992.6 -0.7 81
2019-07-24 04:00:00 23.3 0 Calma 5 Este 0 993.2 -0.1 77
2019-07-24 03:00:00 23.3 2 Nordeste 6 Norte 0 993.2 0 77
2019-07-24 02:00:00 23.5 2 Nordeste 16 Este 0 993.3 0.4 73
2019-07-24 01:00:00 23.5 6 Este 12 Este 0 993.3 0.9 72
2019-07-24 00:00:00 25 5 Este 17 Nordeste 0 993.2 1.3 63